sensor_id;sensor_type;location;lat;lon;timestamp;P1;durP1;ratioP1;P2;durP2;ratioP2
1346;SDS011;667;48.796;9.480;2022-07-06T00:00:29;3.20;;;2.90;;
1346;SDS011;667;48.796;9.480;2022-07-06T00:02:54;3.23;;;3.03;;
1346;SDS011;667;48.796;9.480;2022-07-06T00:05:20;5.97;;;3.30;;
1346;SDS011;667;48.796;9.480;2022-07-06T00:07:45;3.63;;;2.90;;
1346;SDS011;667;48.796;9.480;2022-07-06T00:10:11;3.50;;;3.30;;
1346;SDS011;667;48.796;9.480;2022-07-06T00:12:37;3.80;;;3.17;;
1346;SDS011;667;48.796;9.480;2022-07-06T00:15:02;4.47;;;2.93;;
1346;SDS011;667;48.796;9.480;2022-07-06T00:17:28;3.20;;;2.90;;
1346;SDS011;667;48.796;9.480;2022-07-06T00:19:54;3.20;;;2.90;;
1346;SDS011;667;48.796;9.480;2022-07-06T00:22:19;3.97;;;3.00;;
1346;SDS011;667;48.796;9.480;2022-07-06T00:24:45;3.10;;;2.90;;
1346;SDS011;667;48.796;9.480;2022-07-06T00:27:10;2.97;;;2.77;;
1346;SDS011;667;48.796;9.480;2022-07-06T00:29:36;3.17;;;2.97;;
1346;SDS011;667;48.796;9.480;2022-07-06T00:32:02;3.60;;;3.30;;
1346;SDS011;667;48.796;9.480;2022-07-06T00:34:27;3.00;;;2.80;;
1346;SDS011;667;48.796;9.480;2022-07-06T00:36:53;3.23;;;3.03;;
1346;SDS011;667;48.796;9.480;2022-07-06T00:39:19;3.03;;;2.80;;
1346;SDS011;667;48.796;9.480;2022-07-06T00:41:46;3.67;;;3.37;;
1346;SDS011;667;48.796;9.480;2022-07-06T00:44:11;3.50;;;3.20;;
1346;SDS011;667;48.796;9.480;2022-07-06T00:46:37;3.37;;;3.07;;
1346;SDS011;667;48.796;9.480;2022-07-06T00:49:03;3.73;;;3.43;;
1346;SDS011;667;48.796;9.480;2022-07-06T00:51:29;3.27;;;3.00;;
1346;SDS011;667;48.796;9.480;2022-07-06T00:54:00;3.40;;;3.10;;
1346;SDS011;667;48.796;9.480;2022-07-06T00:56:28;3.40;;;3.10;;
1346;SDS011;667;48.796;9.480;2022-07-06T00:58:56;3.37;;;3.10;;
1346;SDS011;667;48.796;9.480;2022-07-06T01:01:22;3.50;;;3.30;;
1346;SDS011;667;48.796;9.480;2022-07-06T01:03:47;5.60;;;3.20;;
1346;SDS011;667;48.796;9.480;2022-07-06T01:06:13;4.03;;;3.37;;
1346;SDS011;667;48.796;9.480;2022-07-06T01:08:39;7.03;;;3.60;;
1346;SDS011;667;48.796;9.480;2022-07-06T01:11:05;3.30;;;3.10;;
1346;SDS011;667;48.796;9.480;2022-07-06T01:13:31;3.30;;;3.10;;
1346;SDS011;667;48.796;9.480;2022-07-06T01:15:58;3.70;;;3.40;;
1346;SDS011;667;48.796;9.480;2022-07-06T01:18:24;3.60;;;3.27;;
1346;SDS011;667;48.796;9.480;2022-07-06T01:20:50;3.67;;;3.37;;
1346;SDS011;667;48.796;9.480;2022-07-06T01:23:15;3.73;;;3.43;;
1346;SDS011;667;48.796;9.480;2022-07-06T01:25:41;3.90;;;3.60;;
1346;SDS011;667;48.796;9.480;2022-07-06T01:28:07;4.03;;;3.63;;
1346;SDS011;667;48.796;9.480;2022-07-06T01:30:32;3.97;;;3.57;;
1346;SDS011;667;48.796;9.480;2022-07-06T01:32:58;3.60;;;3.30;;
1346;SDS011;667;48.796;9.480;2022-07-06T01:35:24;3.40;;;3.20;;
1346;SDS011;667;48.796;9.480;2022-07-06T01:37:51;3.93;;;3.63;;
1346;SDS011;667;48.796;9.480;2022-07-06T01:40:17;3.70;;;3.43;;
1346;SDS011;667;48.796;9.480;2022-07-06T01:42:42;3.63;;;3.40;;
1346;SDS011;667;48.796;9.480;2022-07-06T01:45:08;4.10;;;3.17;;
1346;SDS011;667;48.796;9.480;2022-07-06T01:47:34;3.90;;;3.60;;
1346;SDS011;667;48.796;9.480;2022-07-06T01:50:01;3.30;;;3.10;;
1346;SDS011;667;48.796;9.480;2022-07-06T01:52:28;4.27;;;3.50;;
1346;SDS011;667;48.796;9.480;2022-07-06T01:54:55;4.53;;;4.20;;
1346;SDS011;667;48.796;9.480;2022-07-06T01:57:21;4.00;;;3.70;;
1346;SDS011;667;48.796;9.480;2022-07-06T01:59:47;3.97;;;3.67;;
1346;SDS011;667;48.796;9.480;2022-07-06T02:02:12;4.07;;;3.77;;
1346;SDS011;667;48.796;9.480;2022-07-06T02:04:38;3.67;;;3.47;;
1346;SDS011;667;48.796;9.480;2022-07-06T02:07:04;4.30;;;4.00;;
1346;SDS011;667;48.796;9.480;2022-07-06T02:09:29;4.27;;;3.97;;
1346;SDS011;667;48.796;9.480;2022-07-06T02:11:55;4.83;;;4.23;;
1346;SDS011;667;48.796;9.480;2022-07-06T02:14:21;4.73;;;4.33;;
1346;SDS011;667;48.796;9.480;2022-07-06T02:16:46;4.40;;;4.00;;
1346;SDS011;667;48.796;9.480;2022-07-06T02:19:12;4.37;;;3.97;;
1346;SDS011;667;48.796;9.480;2022-07-06T02:21:37;4.37;;;4.00;;
1346;SDS011;667;48.796;9.480;2022-07-06T02:24:03;4.60;;;4.30;;
1346;SDS011;667;48.796;9.480;2022-07-06T02:26:29;5.03;;;4.50;;
1346;SDS011;667;48.796;9.480;2022-07-06T02:28:54;4.20;;;3.90;;
1346;SDS011;667;48.796;9.480;2022-07-06T02:31:20;4.50;;;4.20;;
1346;SDS011;667;48.796;9.480;2022-07-06T02:33:46;4.60;;;4.30;;
1346;SDS011;667;48.796;9.480;2022-07-06T02:36:11;4.40;;;4.10;;
1346;SDS011;667;48.796;9.480;2022-07-06T02:38:37;4.17;;;3.87;;
1346;SDS011;667;48.796;9.480;2022-07-06T02:41:02;4.30;;;4.00;;
1346;SDS011;667;48.796;9.480;2022-07-06T02:43:28;4.53;;;4.23;;
1346;SDS011;667;48.796;9.480;2022-07-06T02:45:53;4.73;;;4.07;;
1346;SDS011;667;48.796;9.480;2022-07-06T02:48:19;4.73;;;4.33;;
1346;SDS011;667;48.796;9.480;2022-07-06T02:50:46;4.60;;;4.20;;
1346;SDS011;667;48.796;9.480;2022-07-06T02:53:12;5.17;;;4.70;;
1346;SDS011;667;48.796;9.480;2022-07-06T02:55:38;6.40;;;4.33;;
1346;SDS011;667;48.796;9.480;2022-07-06T02:58:03;4.07;;;3.77;;
1346;SDS011;667;48.796;9.480;2022-07-06T03:00:29;4.70;;;4.30;;
1346;SDS011;667;48.796;9.480;2022-07-06T03:02:55;5.07;;;4.67;;
1346;SDS011;667;48.796;9.480;2022-07-06T03:05:20;4.73;;;4.43;;
1346;SDS011;667;48.796;9.480;2022-07-06T03:07:46;4.70;;;4.40;;
1346;SDS011;667;48.796;9.480;2022-07-06T03:10:11;4.77;;;4.37;;
1346;SDS011;667;48.796;9.480;2022-07-06T03:12:37;5.03;;;4.70;;
1346;SDS011;667;48.796;9.480;2022-07-06T03:15:03;4.93;;;4.43;;
1346;SDS011;667;48.796;9.480;2022-07-06T03:17:28;4.87;;;4.40;;
1346;SDS011;667;48.796;9.480;2022-07-06T03:19:54;4.60;;;4.30;;
1346;SDS011;667;48.796;9.480;2022-07-06T03:22:20;4.77;;;4.40;;
1346;SDS011;667;48.796;9.480;2022-07-06T03:24:45;5.40;;;5.00;;
1346;SDS011;667;48.796;9.480;2022-07-06T03:27:11;5.20;;;4.20;;
1346;SDS011;667;48.796;9.480;2022-07-06T03:29:36;5.40;;;5.00;;
1346;SDS011;667;48.796;9.480;2022-07-06T03:32:02;4.77;;;4.37;;
1346;SDS011;667;48.796;9.480;2022-07-06T03:34:28;5.10;;;4.70;;
1346;SDS011;667;48.796;9.480;2022-07-06T03:36:53;4.83;;;4.53;;
1346;SDS011;667;48.796;9.480;2022-07-06T03:39:19;5.60;;;5.10;;
1346;SDS011;667;48.796;9.480;2022-07-06T03:41:44;7.10;;;4.63;;
1346;SDS011;667;48.796;9.480;2022-07-06T03:44:10;4.67;;;4.27;;
1346;SDS011;667;48.796;9.480;2022-07-06T03:46:36;5.73;;;4.87;;
1346;SDS011;667;48.796;9.480;2022-07-06T03:49:01;4.50;;;4.20;;
1346;SDS011;667;48.796;9.480;2022-07-06T03:51:27;5.60;;;5.10;;
1346;SDS011;667;48.796;9.480;2022-07-06T03:53:53;5.20;;;4.70;;
1346;SDS011;667;48.796;9.480;2022-07-06T03:56:18;5.37;;;4.97;;
1346;SDS011;667;48.796;9.480;2022-07-06T03:58:53;5.00;;;4.70;;
1346;SDS011;667;48.796;9.480;2022-07-06T04:01:23;4.90;;;4.60;;
1346;SDS011;667;48.796;9.480;2022-07-06T04:03:49;6.37;;;5.20;;
1346;SDS011;667;48.796;9.480;2022-07-06T04:06:14;5.03;;;4.73;;
1346;SDS011;667;48.796;9.480;2022-07-06T04:08:40;5.00;;;4.60;;
1346;SDS011;667;48.796;9.480;2022-07-06T04:11:06;5.00;;;4.67;;
1346;SDS011;667;48.796;9.480;2022-07-06T04:13:31;4.97;;;4.57;;
1346;SDS011;667;48.796;9.480;2022-07-06T04:15:57;6.03;;;4.70;;
1346;SDS011;667;48.796;9.480;2022-07-06T04:18:23;5.33;;;5.03;;
1346;SDS011;667;48.796;9.480;2022-07-06T04:20:48;5.00;;;4.60;;
1346;SDS011;667;48.796;9.480;2022-07-06T04:23:14;6.23;;;4.57;;
1346;SDS011;667;48.796;9.480;2022-07-06T04:25:40;4.87;;;4.47;;
1346;SDS011;667;48.796;9.480;2022-07-06T04:28:05;5.53;;;5.00;;
1346;SDS011;667;48.796;9.480;2022-07-06T04:30:31;5.13;;;4.63;;
1346;SDS011;667;48.796;9.480;2022-07-06T04:32:56;5.20;;;4.80;;
1346;SDS011;667;48.796;9.480;2022-07-06T04:35:22;5.50;;;5.00;;
1346;SDS011;667;48.796;9.480;2022-07-06T04:37:48;5.30;;;4.80;;
1346;SDS011;667;48.796;9.480;2022-07-06T04:40:14;4.80;;;4.50;;
1346;SDS011;667;48.796;9.480;2022-07-06T04:42:40;4.70;;;4.40;;
1346;SDS011;667;48.796;9.480;2022-07-06T04:45:05;4.80;;;4.40;;
1346;SDS011;667;48.796;9.480;2022-07-06T04:47:31;5.70;;;5.30;;
1346;SDS011;667;48.796;9.480;2022-07-06T04:49:57;5.77;;;5.30;;
1346;SDS011;667;48.796;9.480;2022-07-06T04:52:23;5.87;;;5.47;;
1346;SDS011;667;48.796;9.480;2022-07-06T04:54:49;5.80;;;5.30;;
1346;SDS011;667;48.796;9.480;2022-07-06T04:57:14;5.87;;;5.37;;
1346;SDS011;667;48.796;9.480;2022-07-06T04:59:40;5.13;;;4.73;;
1346;SDS011;667;48.796;9.480;2022-07-06T05:02:06;5.87;;;5.47;;
1346;SDS011;667;48.796;9.480;2022-07-06T05:04:31;6.17;;;5.70;;
1346;SDS011;667;48.796;9.480;2022-07-06T05:06:57;6.30;;;5.70;;
1346;SDS011;667;48.796;9.480;2022-07-06T05:09:23;5.27;;;4.87;;
1346;SDS011;667;48.796;9.480;2022-07-06T05:11:49;5.73;;;5.33;;
1346;SDS011;667;48.796;9.480;2022-07-06T05:14:14;5.20;;;4.80;;
1346;SDS011;667;48.796;9.480;2022-07-06T05:16:40;8.67;;;5.43;;
1346;SDS011;667;48.796;9.480;2022-07-06T05:19:05;5.40;;;5.00;;
1346;SDS011;667;48.796;9.480;2022-07-06T05:21:31;5.77;;;5.37;;
1346;SDS011;667;48.796;9.480;2022-07-06T05:23:56;6.60;;;6.00;;
1346;SDS011;667;48.796;9.480;2022-07-06T05:26:22;6.67;;;6.03;;
1346;SDS011;667;48.796;9.480;2022-07-06T05:28:48;6.30;;;5.80;;
1346;SDS011;667;48.796;9.480;2022-07-06T05:31:13;5.97;;;5.43;;
1346;SDS011;667;48.796;9.480;2022-07-06T05:33:39;6.70;;;6.20;;
1346;SDS011;667;48.796;9.480;2022-07-06T05:36:04;6.80;;;6.10;;
1346;SDS011;667;48.796;9.480;2022-07-06T05:38:30;6.50;;;6.00;;
1346;SDS011;667;48.796;9.480;2022-07-06T05:40:56;6.20;;;5.70;;
1346;SDS011;667;48.796;9.480;2022-07-06T05:43:21;5.70;;;5.30;;
1346;SDS011;667;48.796;9.480;2022-07-06T05:45:47;6.23;;;5.73;;
1346;SDS011;667;48.796;9.480;2022-07-06T05:48:12;6.30;;;5.70;;
1346;SDS011;667;48.796;9.480;2022-07-06T05:50:57;5.63;;;5.13;;
1346;SDS011;667;48.796;9.480;2022-07-06T05:53:22;6.37;;;5.77;;
1346;SDS011;667;48.796;9.480;2022-07-06T05:55:48;7.10;;;5.67;;
1346;SDS011;667;48.796;9.480;2022-07-06T05:58:14;5.10;;;4.70;;
1346;SDS011;667;48.796;9.480;2022-07-06T06:00:39;5.93;;;4.93;;
1346;SDS011;667;48.796;9.480;2022-07-06T06:03:05;5.13;;;4.83;;
1346;SDS011;667;48.796;9.480;2022-07-06T06:05:31;8.70;;;5.40;;
1346;SDS011;667;48.796;9.480;2022-07-06T06:07:56;5.67;;;5.27;;
1346;SDS011;667;48.796;9.480;2022-07-06T06:10:22;5.30;;;4.90;;
1346;SDS011;667;48.796;9.480;2022-07-06T06:12:48;4.67;;;4.37;;
1346;SDS011;667;48.796;9.480;2022-07-06T06:15:14;5.00;;;4.60;;
1346;SDS011;667;48.796;9.480;2022-07-06T06:17:40;5.40;;;5.00;;
1346;SDS011;667;48.796;9.480;2022-07-06T06:20:06;5.53;;;5.00;;
1346;SDS011;667;48.796;9.480;2022-07-06T06:25:26;5.20;;;4.83;;
1346;SDS011;667;48.796;9.480;2022-07-06T06:27:57;5.40;;;4.90;;
1346;SDS011;667;48.796;9.480;2022-07-06T06:30:23;5.73;;;4.77;;
1346;SDS011;667;48.796;9.480;2022-07-06T06:32:49;5.03;;;4.60;;
1346;SDS011;667;48.796;9.480;2022-07-06T06:35:15;5.33;;;4.80;;
1346;SDS011;667;48.796;9.480;2022-07-06T06:37:40;6.70;;;4.30;;
1346;SDS011;667;48.796;9.480;2022-07-06T06:40:07;5.90;;;4.70;;
1346;SDS011;667;48.796;9.480;2022-07-06T06:42:35;5.87;;;4.50;;
1346;SDS011;667;48.796;9.480;2022-07-06T06:45:02;6.43;;;4.53;;
1346;SDS011;667;48.796;9.480;2022-07-06T06:47:29;4.70;;;4.40;;
1346;SDS011;667;48.796;9.480;2022-07-06T06:49:54;5.87;;;4.90;;
1346;SDS011;667;48.796;9.480;2022-07-06T06:52:20;5.30;;;4.80;;
1346;SDS011;667;48.796;9.480;2022-07-06T06:54:45;4.20;;;3.90;;
1346;SDS011;667;48.796;9.480;2022-07-06T06:57:11;4.30;;;3.90;;
1346;SDS011;667;48.796;9.480;2022-07-06T06:59:36;4.57;;;4.13;;
1346;SDS011;667;48.796;9.480;2022-07-06T07:02:02;4.83;;;4.53;;
1346;SDS011;667;48.796;9.480;2022-07-06T07:04:28;4.70;;;4.40;;
1346;SDS011;667;48.796;9.480;2022-07-06T07:06:54;5.13;;;4.33;;
1346;SDS011;667;48.796;9.480;2022-07-06T07:09:20;4.93;;;4.53;;
1346;SDS011;667;48.796;9.480;2022-07-06T07:11:45;5.17;;;4.43;;
1346;SDS011;667;48.796;9.480;2022-07-06T07:14:11;4.77;;;4.30;;
1346;SDS011;667;48.796;9.480;2022-07-06T07:16:37;4.97;;;4.40;;
1346;SDS011;667;48.796;9.480;2022-07-06T07:19:02;7.20;;;4.77;;
1346;SDS011;667;48.796;9.480;2022-07-06T07:21:28;4.57;;;4.27;;
1346;SDS011;667;48.796;9.480;2022-07-06T07:23:53;5.13;;;4.70;;
1346;SDS011;667;48.796;9.480;2022-07-06T07:26:19;5.20;;;4.80;;
1346;SDS011;667;48.796;9.480;2022-07-06T07:28:44;4.87;;;4.33;;
1346;SDS011;667;48.796;9.480;2022-07-06T07:31:11;4.53;;;4.13;;
1346;SDS011;667;48.796;9.480;2022-07-06T07:33:37;4.60;;;4.30;;
1346;SDS011;667;48.796;9.480;2022-07-06T07:36:03;5.07;;;4.57;;
1346;SDS011;667;48.796;9.480;2022-07-06T07:38:29;6.07;;;4.90;;
1346;SDS011;667;48.796;9.480;2022-07-06T07:40:55;5.63;;;4.23;;
1346;SDS011;667;48.796;9.480;2022-07-06T07:43:20;4.70;;;4.30;;
1346;SDS011;667;48.796;9.480;2022-07-06T07:45:47;5.20;;;4.70;;
1346;SDS011;667;48.796;9.480;2022-07-06T07:48:13;5.60;;;4.60;;
1346;SDS011;667;48.796;9.480;2022-07-06T07:50:40;5.27;;;4.77;;
1346;SDS011;667;48.796;9.480;2022-07-06T07:53:06;4.57;;;4.27;;
1346;SDS011;667;48.796;9.480;2022-07-06T07:55:31;4.60;;;4.30;;
1346;SDS011;667;48.796;9.480;2022-07-06T07:57:57;5.27;;;4.87;;
1346;SDS011;667;48.796;9.480;2022-07-06T08:00:23;6.50;;;4.30;;
1346;SDS011;667;48.796;9.480;2022-07-06T08:02:49;4.57;;;3.90;;
1346;SDS011;667;48.796;9.480;2022-07-06T08:05:15;4.90;;;4.20;;
1346;SDS011;667;48.796;9.480;2022-07-06T08:07:44;5.20;;;4.70;;
1346;SDS011;667;48.796;9.480;2022-07-06T08:10:09;5.83;;;4.40;;
1346;SDS011;667;48.796;9.480;2022-07-06T08:12:35;4.63;;;4.17;;
1346;SDS011;667;48.796;9.480;2022-07-06T08:15:01;5.03;;;4.53;;
1346;SDS011;667;48.796;9.480;2022-07-06T08:17:28;4.53;;;4.13;;
1346;SDS011;667;48.796;9.480;2022-07-06T08:19:54;5.30;;;4.30;;
1346;SDS011;667;48.796;9.480;2022-07-06T08:22:20;4.80;;;4.40;;
1346;SDS011;667;48.796;9.480;2022-07-06T08:24:45;5.13;;;4.57;;
1346;SDS011;667;48.796;9.480;2022-07-06T08:27:11;4.47;;;4.17;;
1346;SDS011;667;48.796;9.480;2022-07-06T08:29:36;5.07;;;4.57;;
1346;SDS011;667;48.796;9.480;2022-07-06T08:32:02;4.87;;;4.20;;
1346;SDS011;667;48.796;9.480;2022-07-06T08:34:28;4.40;;;4.10;;
1346;SDS011;667;48.796;9.480;2022-07-06T08:36:53;4.93;;;4.50;;
1346;SDS011;667;48.796;9.480;2022-07-06T08:39:19;4.63;;;4.20;;
1346;SDS011;667;48.796;9.480;2022-07-06T08:41:45;4.27;;;3.87;;
1346;SDS011;667;48.796;9.480;2022-07-06T08:44:16;5.33;;;4.13;;
1346;SDS011;667;48.796;9.480;2022-07-06T08:46:42;4.97;;;4.10;;
1346;SDS011;667;48.796;9.480;2022-07-06T08:49:12;4.83;;;4.43;;
1346;SDS011;667;48.796;9.480;2022-07-06T08:51:40;7.10;;;4.27;;
1346;SDS011;667;48.796;9.480;2022-07-06T08:54:05;4.27;;;3.90;;
1346;SDS011;667;48.796;9.480;2022-07-06T08:56:33;10.97;;;5.17;;
1346;SDS011;667;48.796;9.480;2022-07-06T08:58:59;5.07;;;4.40;;
1346;SDS011;667;48.796;9.480;2022-07-06T09:01:25;4.90;;;4.50;;
1346;SDS011;667;48.796;9.480;2022-07-06T09:03:51;4.30;;;3.90;;
1346;SDS011;667;48.796;9.480;2022-07-06T09:06:26;5.30;;;4.67;;
1346;SDS011;667;48.796;9.480;2022-07-06T09:08:54;4.87;;;4.47;;
1346;SDS011;667;48.796;9.480;2022-07-06T09:11:24;4.50;;;4.20;;
1346;SDS011;667;48.796;9.480;2022-07-06T09:13:50;8.60;;;4.50;;
1346;SDS011;667;48.796;9.480;2022-07-06T09:16:17;5.57;;;5.00;;
1346;SDS011;667;48.796;9.480;2022-07-06T09:18:49;6.67;;;4.83;;
1346;SDS011;667;48.796;9.480;2022-07-06T09:21:25;4.40;;;4.10;;
1346;SDS011;667;48.796;9.480;2022-07-06T09:23:56;5.30;;;4.90;;
1346;SDS011;667;48.796;9.480;2022-07-06T09:26:22;4.43;;;4.13;;
1346;SDS011;667;48.796;9.480;2022-07-06T09:28:49;5.30;;;4.90;;
1346;SDS011;667;48.796;9.480;2022-07-06T09:31:14;6.03;;;4.70;;
1346;SDS011;667;48.796;9.480;2022-07-06T09:33:56;4.40;;;4.00;;
1346;SDS011;667;48.796;9.480;2022-07-06T09:39:15;5.40;;;3.90;;
1346;SDS011;667;48.796;9.480;2022-07-06T09:41:46;4.83;;;4.43;;
1346;SDS011;667;48.796;9.480;2022-07-06T09:44:13;4.30;;;3.90;;
1346;SDS011;667;48.796;9.480;2022-07-06T09:46:57;6.70;;;4.63;;
1346;SDS011;667;48.796;9.480;2022-07-06T09:49:28;5.20;;;4.53;;
1346;SDS011;667;48.796;9.480;2022-07-06T09:51:56;4.90;;;4.50;;
1346;SDS011;667;48.796;9.480;2022-07-06T09:54:23;4.80;;;4.40;;
1346;SDS011;667;48.796;9.480;2022-07-06T09:56:49;4.73;;;4.33;;
1346;SDS011;667;48.796;9.480;2022-07-06T09:59:17;5.83;;;4.90;;
1346;SDS011;667;48.796;9.480;2022-07-06T10:01:44;5.10;;;4.67;;
1346;SDS011;667;48.796;9.480;2022-07-06T10:04:11;4.40;;;4.10;;
1346;SDS011;667;48.796;9.480;2022-07-06T10:06:38;5.67;;;4.80;;
1346;SDS011;667;48.796;9.480;2022-07-06T10:09:08;4.47;;;4.10;;
1346;SDS011;667;48.796;9.480;2022-07-06T10:11:37;4.80;;;4.40;;
1346;SDS011;667;48.796;9.480;2022-07-06T10:14:04;4.83;;;4.37;;
1346;SDS011;667;48.796;9.480;2022-07-06T10:16:31;6.40;;;4.10;;
1346;SDS011;667;48.796;9.480;2022-07-06T10:18:59;5.40;;;5.00;;
1346;SDS011;667;48.796;9.480;2022-07-06T10:21:28;4.77;;;4.37;;
1346;SDS011;667;48.796;9.480;2022-07-06T10:23:55;4.53;;;4.13;;
1346;SDS011;667;48.796;9.480;2022-07-06T10:26:25;4.83;;;4.43;;
1346;SDS011;667;48.796;9.480;2022-07-06T10:28:51;4.90;;;4.53;;
1346;SDS011;667;48.796;9.480;2022-07-06T10:31:18;4.70;;;4.20;;
1346;SDS011;667;48.796;9.480;2022-07-06T10:33:45;4.30;;;3.93;;
1346;SDS011;667;48.796;9.480;2022-07-06T10:36:12;4.00;;;3.70;;
1346;SDS011;667;48.796;9.480;2022-07-06T10:38:38;4.13;;;3.83;;
1346;SDS011;667;48.796;9.480;2022-07-06T10:41:05;5.37;;;4.43;;
1346;SDS011;667;48.796;9.480;2022-07-06T10:43:33;5.13;;;4.67;;
1346;SDS011;667;48.796;9.480;2022-07-06T10:46:04;4.73;;;4.23;;
1346;SDS011;667;48.796;9.480;2022-07-06T10:48:34;5.67;;;5.13;;
1346;SDS011;667;48.796;9.480;2022-07-06T10:51:01;4.43;;;4.03;;
1346;SDS011;667;48.796;9.480;2022-07-06T10:53:33;7.07;;;4.33;;
1346;SDS011;667;48.796;9.480;2022-07-06T10:56:05;5.93;;;4.20;;
1346;SDS011;667;48.796;9.480;2022-07-06T11:01:02;4.77;;;4.27;;
1346;SDS011;667;48.796;9.480;2022-07-06T11:06:01;5.03;;;4.27;;
1346;SDS011;667;48.796;9.480;2022-07-06T11:09:03;3.80;;;3.60;;
1346;SDS011;667;48.796;9.480;2022-07-06T11:11:24;5.20;;;4.03;;
1346;SDS011;667;48.796;9.480;2022-07-06T11:13:58;4.57;;;3.33;;
1346;SDS011;667;48.796;9.480;2022-07-06T11:19:14;4.20;;;3.80;;
1346;SDS011;667;48.796;9.480;2022-07-06T11:24:24;4.50;;;4.10;;
1346;SDS011;667;48.796;9.480;2022-07-06T11:26:52;4.40;;;4.07;;
1346;SDS011;667;48.796;9.480;2022-07-06T11:29:22;4.50;;;4.10;;
1346;SDS011;667;48.796;9.480;2022-07-06T11:31:54;5.00;;;4.20;;
1346;SDS011;667;48.796;9.480;2022-07-06T11:34:25;6.80;;;3.67;;
1346;SDS011;667;48.796;9.480;2022-07-06T11:36:58;4.30;;;4.00;;
1346;SDS011;667;48.796;9.480;2022-07-06T11:39:29;4.17;;;3.87;;
1346;SDS011;667;48.796;9.480;2022-07-06T11:41:56;4.30;;;3.87;;
1346;SDS011;667;48.796;9.480;2022-07-06T11:44:22;4.93;;;4.43;;
1346;SDS011;667;48.796;9.480;2022-07-06T11:46:48;4.27;;;3.93;;
1346;SDS011;667;48.796;9.480;2022-07-06T11:49:14;3.90;;;3.60;;
1346;SDS011;667;48.796;9.480;2022-07-06T11:51:41;4.07;;;3.77;;
1346;SDS011;667;48.796;9.480;2022-07-06T11:54:11;3.77;;;3.47;;
1346;SDS011;667;48.796;9.480;2022-07-06T11:56:49;3.77;;;3.47;;
1346;SDS011;667;48.796;9.480;2022-07-06T11:59:19;5.10;;;4.60;;
1346;SDS011;667;48.796;9.480;2022-07-06T12:02:09;4.40;;;3.97;;
1346;SDS011;667;48.796;9.480;2022-07-06T12:04:37;4.20;;;3.90;;
1346;SDS011;667;48.796;9.480;2022-07-06T12:07:14;4.53;;;4.23;;
1346;SDS011;667;48.796;9.480;2022-07-06T12:09:41;8.90;;;4.63;;
1346;SDS011;667;48.796;9.480;2022-07-06T12:12:08;4.90;;;4.50;;
1346;SDS011;667;48.796;9.480;2022-07-06T12:14:36;4.30;;;4.00;;
1346;SDS011;667;48.796;9.480;2022-07-06T12:17:06;5.30;;;4.00;;
1346;SDS011;667;48.796;9.480;2022-07-06T12:19:41;4.83;;;4.27;;
1346;SDS011;667;48.796;9.480;2022-07-06T12:22:08;4.50;;;3.87;;
1346;SDS011;667;48.796;9.480;2022-07-06T12:24:34;4.23;;;3.83;;
1346;SDS011;667;48.796;9.480;2022-07-06T12:27:13;4.60;;;4.10;;
1346;SDS011;667;48.796;9.480;2022-07-06T12:29:43;5.50;;;4.10;;
1346;SDS011;667;48.796;9.480;2022-07-06T12:32:17;4.10;;;3.80;;
1346;SDS011;667;48.796;9.480;2022-07-06T12:35:04;4.23;;;3.90;;
1346;SDS011;667;48.796;9.480;2022-07-06T12:37:31;4.93;;;4.50;;
1346;SDS011;667;48.796;9.480;2022-07-06T12:39:56;4.43;;;4.03;;
1346;SDS011;667;48.796;9.480;2022-07-06T12:42:22;5.37;;;4.40;;
1346;SDS011;667;48.796;9.480;2022-07-06T12:44:49;4.20;;;3.77;;
1346;SDS011;667;48.796;9.480;2022-07-06T12:47:19;4.63;;;4.07;;
1346;SDS011;667;48.796;9.480;2022-07-06T12:49:48;4.27;;;3.87;;
1346;SDS011;667;48.796;9.480;2022-07-06T12:52:28;4.50;;;4.07;;
1346;SDS011;667;48.796;9.480;2022-07-06T12:54:54;3.90;;;3.60;;
1346;SDS011;667;48.796;9.480;2022-07-06T12:57:20;4.00;;;3.70;;
1346;SDS011;667;48.796;9.480;2022-07-06T13:05:00;5.20;;;4.20;;
1346;SDS011;667;48.796;9.480;2022-07-06T13:07:27;4.40;;;4.00;;
1346;SDS011;667;48.796;9.480;2022-07-06T13:09:56;5.37;;;4.43;;
1346;SDS011;667;48.796;9.480;2022-07-06T13:12:22;4.73;;;4.40;;
1346;SDS011;667;48.796;9.480;2022-07-06T13:14:49;5.10;;;4.60;;
1346;SDS011;667;48.796;9.480;2022-07-06T13:17:15;5.27;;;4.77;;
1346;SDS011;667;48.796;9.480;2022-07-06T13:19:41;5.53;;;4.10;;
1346;SDS011;667;48.796;9.480;2022-07-06T13:22:07;4.77;;;4.40;;
1346;SDS011;667;48.796;9.480;2022-07-06T13:24:33;4.43;;;4.13;;
1346;SDS011;667;48.796;9.480;2022-07-06T13:26:58;5.20;;;4.70;;
1346;SDS011;667;48.796;9.480;2022-07-06T13:29:24;4.70;;;4.30;;
1346;SDS011;667;48.796;9.480;2022-07-06T13:31:50;5.93;;;4.53;;
1346;SDS011;667;48.796;9.480;2022-07-06T13:34:16;5.03;;;4.63;;
1346;SDS011;667;48.796;9.480;2022-07-06T13:36:42;7.90;;;5.00;;
1346;SDS011;667;48.796;9.480;2022-07-06T13:39:08;4.80;;;4.40;;
1346;SDS011;667;48.796;9.480;2022-07-06T13:41:34;5.10;;;4.70;;
1346;SDS011;667;48.796;9.480;2022-07-06T13:44:00;4.57;;;4.17;;
1346;SDS011;667;48.796;9.480;2022-07-06T13:46:27;4.50;;;4.17;;
1346;SDS011;667;48.796;9.480;2022-07-06T13:48:53;5.40;;;5.00;;
1346;SDS011;667;48.796;9.480;2022-07-06T13:51:19;5.07;;;4.57;;
1346;SDS011;667;48.796;9.480;2022-07-06T13:53:45;5.43;;;5.03;;
1346;SDS011;667;48.796;9.480;2022-07-06T13:56:11;4.70;;;4.23;;
1346;SDS011;667;48.796;9.480;2022-07-06T13:58:37;7.70;;;3.97;;
1346;SDS011;667;48.796;9.480;2022-07-06T14:01:03;5.20;;;4.50;;
1346;SDS011;667;48.796;9.480;2022-07-06T14:03:29;4.40;;;4.00;;
1346;SDS011;667;48.796;9.480;2022-07-06T14:05:59;4.20;;;3.90;;
1346;SDS011;667;48.796;9.480;2022-07-06T14:08:27;4.13;;;3.73;;
1346;SDS011;667;48.796;9.480;2022-07-06T14:10:54;5.03;;;4.20;;
1346;SDS011;667;48.796;9.480;2022-07-06T14:13:20;4.20;;;3.93;;
1346;SDS011;667;48.796;9.480;2022-07-06T14:15:46;4.63;;;4.10;;
1346;SDS011;667;48.796;9.480;2022-07-06T14:18:12;5.17;;;4.17;;
1346;SDS011;667;48.796;9.480;2022-07-06T14:20:39;3.87;;;3.67;;
1346;SDS011;667;48.796;9.480;2022-07-06T14:23:06;4.63;;;4.20;;
1346;SDS011;667;48.796;9.480;2022-07-06T14:25:31;3.70;;;3.50;;
1346;SDS011;667;48.796;9.480;2022-07-06T14:27:57;4.27;;;3.90;;
1346;SDS011;667;48.796;9.480;2022-07-06T14:30:24;4.20;;;3.87;;
1346;SDS011;667;48.796;9.480;2022-07-06T14:32:50;4.00;;;3.70;;
1346;SDS011;667;48.796;9.480;2022-07-06T14:35:15;4.47;;;4.07;;
1346;SDS011;667;48.796;9.480;2022-07-06T14:37:41;4.47;;;4.07;;
1346;SDS011;667;48.796;9.480;2022-07-06T14:40:07;4.30;;;3.90;;
1346;SDS011;667;48.796;9.480;2022-07-06T14:42:33;4.30;;;3.90;;
1346;SDS011;667;48.796;9.480;2022-07-06T14:44:59;4.20;;;3.90;;
1346;SDS011;667;48.796;9.480;2022-07-06T14:47:24;4.27;;;3.97;;
1346;SDS011;667;48.796;9.480;2022-07-06T14:49:50;4.57;;;4.17;;
1346;SDS011;667;48.796;9.480;2022-07-06T14:52:17;4.07;;;3.77;;
1346;SDS011;667;48.796;9.480;2022-07-06T14:54:42;3.77;;;3.47;;
1346;SDS011;667;48.796;9.480;2022-07-06T14:57:08;3.43;;;3.23;;
1346;SDS011;667;48.796;9.480;2022-07-06T14:59:34;4.70;;;4.00;;
1346;SDS011;667;48.796;9.480;2022-07-06T15:02:00;4.70;;;4.30;;
1346;SDS011;667;48.796;9.480;2022-07-06T15:04:26;4.20;;;3.90;;
1346;SDS011;667;48.796;9.480;2022-07-06T15:06:52;5.07;;;3.63;;
1346;SDS011;667;48.796;9.480;2022-07-06T15:09:18;5.37;;;3.90;;
1346;SDS011;667;48.796;9.480;2022-07-06T15:11:43;3.60;;;3.30;;
1346;SDS011;667;48.796;9.480;2022-07-06T15:14:10;3.93;;;3.63;;
1346;SDS011;667;48.796;9.480;2022-07-06T15:16:36;3.83;;;3.07;;
1346;SDS011;667;48.796;9.480;2022-07-06T15:19:02;4.90;;;3.57;;
1346;SDS011;667;48.796;9.480;2022-07-06T15:21:28;3.60;;;3.30;;
1346;SDS011;667;48.796;9.480;2022-07-06T15:23:53;3.50;;;3.30;;
1346;SDS011;667;48.796;9.480;2022-07-06T15:26:19;7.00;;;3.70;;
1346;SDS011;667;48.796;9.480;2022-07-06T15:28:44;3.60;;;3.30;;
1346;SDS011;667;48.796;9.480;2022-07-06T15:31:10;3.37;;;3.07;;
1346;SDS011;667;48.796;9.480;2022-07-06T15:33:35;3.90;;;3.60;;
1346;SDS011;667;48.796;9.480;2022-07-06T15:36:01;3.67;;;3.40;;
1346;SDS011;667;48.796;9.480;2022-07-06T15:38:27;3.60;;;3.30;;
1346;SDS011;667;48.796;9.480;2022-07-06T15:40:53;3.80;;;3.50;;
1346;SDS011;667;48.796;9.480;2022-07-06T15:43:24;4.23;;;3.53;;
1346;SDS011;667;48.796;9.480;2022-07-06T15:45:54;3.27;;;3.07;;
1346;SDS011;667;48.796;9.480;2022-07-06T15:48:21;3.40;;;3.10;;